Alyeska Resort
Max's Hourly Weather Roundup
ALYESKA_MAX 5/24/2016
Click Here for Graph

        DATE  TIME   Air  Wind  Wind  Wind  BATT   Rel
                    Temp   Spd   Dir  Gust  Volt  Hum%
                      F   MPH   AVG   MPH   AVG   AVG

   5/24/2016 09:00    37     9   189    21 13.59    77
   5/24/2016 08:00    37    11   271    24 13.60    80
   5/24/2016 07:00    37     8   254    18 13.05    79
   5/24/2016 06:00    37     7   270    17 12.80    78
   5/24/2016 05:00    37     6   230    16 12.80    77
   5/24/2016 04:00    37     6   225    12 12.82    76
   5/24/2016 03:00    37     4   168     8 12.84    78
   5/24/2016 02:00    38     3   183    11 12.87    78
   5/24/2016 01:00    39     5   288    11 12.91    78
   5/23/2016 24:00    39     4   255     7 12.98    84
   5/23/2016 23:00    40     4           8 13.13    86
   5/23/2016 22:00    40     5   205    10 13.81    86
   5/23/2016 21:00    40     9   185    14 13.88    88
   5/23/2016 20:00    41    12   187    22 13.86    87
   5/23/2016 19:00    40    12   192    19 13.85    90
   5/23/2016 18:00    40     9   200    16 13.82    91
   5/23/2016 17:00    40     8   175    14 13.81    88
   5/23/2016 16:00    39     9   168    14 13.88    94
   5/23/2016 15:00    38     9   182    19 13.85    93
   5/23/2016 14:00    37    10   169    19 13.72    96
   5/23/2016 13:00    37     6   157    14 13.70    95
   5/23/2016 12:00    35     6   172    13 13.64    98
   5/23/2016 11:00    36     2   229     6 13.59    97
   5/23/2016 10:00    34     4   139    10 13.59    98


Click Here for Graph